< < Back
Terminal Aerodrome Forecast


Current Version              Previous Versions:   1  2  3  4  5  6  7  8  9  

Terminal Aerodrome Forecast

934
FTUS42 KMLB 040538
TAFDAB
TAF
KDAB 040538Z 0406/0506 21003KT P6SM SCT120 BKN250
     FM041400 21006KT P6SM FEW030 SCT250
     FM041900 10007KT P6SM VCTS SCT030CB BKN080
      TEMPO 0420/0423 3SM TSRA BKN020CB OVC040
     FM050000 17004KT P6SM SCT040 OVC100=

Latest METAR

781
SAUS80 KWBC 041500 RRA
MTRDAB
METAR KDAB 041453Z 21009KT 10SM FEW030 FEW150 BKN250 29/23 A3014 RMK AO2
SLP206 CB DSNT W T02940233 50004


USA.gov is the U.S. government's official web portal to all federal, state and local government web resources and services.